Professional Rodeo Cowboys Association
PRCA RAM WORLD STANDINGS
ProRodeo Gear Official Merchandise Of The PRCA

PRCA Stock Statistics

SEARCH BY:
Stock Rodeo Contestant Stock Contractor

Tanner Wyatt Phillips

EVENT:
Unofficial results reflect placement at time of Web posting and can change.

SEASON BREAKDOWN

Season Attempts Qual Rides Re-rides Ride %
2019 71 51 0 71.83 %
2018 16 13 0 81.25 %
Totals 87 64 0 0.00 %

RODEO DETAIL

Date Location Rodeo SC Brand Ride Comments Stock Score Contestant Score
9/6/2019 Poplar Bluff, MO Three Rivers Shrine Club Championship Rodeo GP V8 66.00 17.00 / 17.00 18.00 / 14.00
9/5/2019 Fort Madison, IA Tri-State Rodeo CB V81 75.50 20.50 / 21.00 16.00 / 18.00
9/2/2019 Dayton, IA Dayton Championship Rodeo CB W33 0.00 20.00 / 16.00 0.00 / 0.00
9/1/2019 Palestine, IL Pioneer City Rodeo PK 9202 0.00 18.00 / 20.00 0.00 / 0.00
8/28/2019 Vinita, OK Will Rogers Memorial Rodeo RH 54 73.00 20.00 / 20.00 15.00 / 18.00
8/26/2019 Pueblo, CO Colorado State Fair & Rodeo HV 813 0.00 20.00 / 22.00 0.00 / 0.00
8/25/2019 Hastings, NE Oregon Trail Rodeo KR 001 73.00 18.00 / 19.00 17.00 / 19.00
8/23/2019 Ashland, MO Cattlemen Days Rodeo TH 026 0.00 21.00 / 20.00 0.00 / 0.00
8/21/2019 Rapid City, SD Range Days Rodeo BH 580 72.00 20.00 / 18.00 14.00 / 20.00
8/20/2019 Miles City, MT Eastern Montana Fair Rodeo GK 552 77.00 19.50 / 18.50 19.00 / 20.00
8/17/2019 Depere, WI Brown County Fair Pro Rodeo TH 057 77.50 19.00 / 20.50 20.00 / 18.00
8/14/2019 Mauston, WI Juneau County Fair Pro Rodeo TH Y17 71.00 17.00 / 18.00 18.00 / 18.00
8/5/2019 Loveland, CO Larimer County Fair & Rodeo 0.00 19.50 / 20.00 0.00 / 0.00
8/4/2019 Castle Rock, CO Douglas County Fair and Rodeo SM 110 75.00 19.00 / 20.00 18.00 / 18.00
8/3/2019 Carson, IA Carson Community Rodeo TH I3 75.00 20.00 / 20.50 17.00 / 17.50
8/2/2019 Sidney, IA Iowa s Championship Rodeo CC -Q39 73.00 18.00 / 19.00 16.00 / 20.00
8/1/2019 Abilene, KS Wild Bill Hickok Rodeo AN C4 0.00 22.00 / 22.00 0.00 / 0.00
7/29/2019 Hill City, KS Jayhawker Roundup RH 01 73.00 18.00 / 22.00 16.00 / 17.00
7/27/2019 Manhattan, KS Kaw Valley Rodeo RH 54 0.00 18.00 / 18.00 0.00 / 0.00
7/26/2019 Wahoo, NE Wahoo Saddle Club PRCA Rodeo PK 045 0.00 21.00 / 21.50 0.00 / 0.00
7/24/2019 Sac City, IA Sac County Fair & Rodeo BA 4D3 68.00 19.00 / 16.00 19.00 / 14.00
7/20/2019 Iron River, MI Upper Peninsula Championship Rodeo TH 011 78.00 20.00 / 19.00 21.00 / 18.00
7/20/2019 Iron River, MI Upper Peninsula Championship Rodeo TH 03 0.00 21.00 / 20.00 0.00 / 0.00
7/19/2019 Iron River, MI Upper Peninsula Championship Rodeo TH 025 80.00 21.00 / 19.00 22.00 / 18.00
7/13/2019 Hamel, MN Hamel Rodeo & Bull Ridin Bonanza MC 444 0.00 16.00 / 14.00 0.00 / 0.00
Page of 3
Per Page
 
 
 
PRCA Sponsors


MGM Grand Polaris Ranger American Quarter Horse Association Cinch Jeans Gold Buckle Beer Outlaw Equine

Copyright © 2019 Professional Rodeo Cowboys Association. All rights reserved. No portion of ProRodeo.com may be duplicated, redistributed or manipulated in any form. By accessing any information beyond this page, you agree to abide by the Terms of Use.


PRCA Wrangler National Finals Rodeo Wrangler ProRodeo Tour Finale Presented by Justin Boots Xtreme Bulls RAM National Circuit Finals Rodeo ProRodeo Gear ProRodeo Tour World Standings Tour Standings PRCA Rodeo Schedule Rodeo Results Facebook Twitter Instagram YouTube Mobile App ProRodeoTv.Com